Historique des mesures à Cassis (13260), France
Quotidien Résumé Mai 19, 2017 Unités:  US    Métrique   Métrique/US
« Précédent (Jour)
Suivant (Jour) »
Quotidien Hebdomadaire Mensuel Annuel Période au choix
  Maximum: Minimum: Moyenne:
Température: 32 °F 55.9 °F 61.9 °F
Point de rosée: 32 °F 45.5 °F 49.1 °F
Humidité: Humidity % 46 % 61 %
Vitesse du vent: WindSpeedKMH mph 2.1 mph 13.2 mph
Rafales: WindSpeedGustKMH mph - -
Vent:- - SSW
Pression: 0 in 29.8 in -
Précipitations: 38.1 in    
Historical Graphs
 
 
Mesures pour : Mai 19, 2017
Heure Temperature Point de rosée Pression Vent Vitesse du vent Rafales Humidité Pluie (par heure) Conditions
32 °F 32 °F 0 in Calm     Humidity % 0 in SoftwareType W/m2
00:10 68.5 °F 55.8 °F 29.8 in SSW 2.1 mph 3.5 mph 64 % 0 in open2300-1.11 W/m2
01:10 65.1 °F 55.9 °F 29.8 in NNW 12.2 mph 20.6 mph 72 % 0 in open2300-1.11 W/m2
02:10 63.3 °F 54.5 °F 29.8 in NW 13.0 mph 18.3 mph 73 % 0 in open2300-1.11 W/m2
03:10 61 °F 54.5 °F 29.8 in WNW 16.6 mph 16.9 mph 79 % 12.7 in open2300-1.11 W/m2
04:10 59.5 °F 53.4 °F 29.8 in WNW 22.7 mph 38.1 mph 80 % 12.7 in open2300-1.11 W/m2
05:10 57.9 °F 51.8 °F 29.8 in NW 21.9 mph 21.9 mph 80 % 12.7 in open2300-1.11 W/m2
06:10 57.6 °F 51.8 °F 29.8 in WNW 9.0 mph 10.1 mph 81 % 0 in open2300-1.11 W/m2
07:10 57.7 °F 51.3 °F 29.9 in NW 14.3 mph 16.9 mph 79 % 0 in open2300-1.11 W/m2
08:10 56.1 °F 47.5 °F 29.9 in NNE 7.2 mph 9.0 mph 73 % 0 in open2300-1.11 W/m2
09:10 55.9 °F 48 °F 29.9 in NNE 8.2 mph 22.4 mph 75 % 0 in open2300-1.11 W/m2
10:10 58.5 °F 49.5 °F 29.9 in NW 11.1 mph 11.1 mph 72 % 0 in open2300-1.11 W/m2
11:10 62.4 °F 49.3 °F 29.9 in NNE 19.5 mph 20.9 mph 62 % 0 in open2300-1.11 W/m2
12:10 64.9 °F 47.3 °F 29.9 in NNE 11.1 mph 21.9 mph 53 % 0 in open2300-1.11 W/m2
13:10 65.8 °F 45.7 °F 29.9 in NW 10.1 mph 12.2 mph 48 % 0 in open2300-1.11 W/m2
14:10 67.1 °F 45.5 °F 29.9 in NNE 6.8 mph 22.4 mph 46 % 0 in open2300-1.11 W/m2
15:10 67.8 °F 46.2 °F 29.9 in WNW 21.6 mph 32.0 mph 46 % 0 in open2300-1.11 W/m2
16:10 68.2 °F 48.9 °F 29.9 in WNW 14.0 mph 14.0 mph 50 % 0 in open2300-1.11 W/m2
17:10 68 °F 48.2 °F 29.9 in North 18.3 mph 24.5 mph 49 % 0 in open2300-1.11 W/m2
18:11 68.2 °F 47.7 °F 29.9 in North 13.7 mph 19.8 mph 48 % 0 in open2300-1.11 W/m2
19:10 66 °F 47.8 °F 29.9 in NW 12.2 mph 19.1 mph 52 % 0 in open2300-1.11 W/m2
20:10 64.9 °F 48.4 °F 29.9 in NW 13.0 mph 19.5 mph 55 % 0 in open2300-1.11 W/m2
21:10 63.7 °F 48.6 °F 29.9 in NNW 18.7 mph 18.7 mph 58 % 0 in open2300-1.11 W/m2
22:10 63 °F 49.6 °F 29.9 in NW 28.2 mph 28.2 mph 62 % 0 in open2300-1.11 W/m2
23:10 62.8 °F 46.8 °F 30 in North 4.0 mph 20.9 mph 56 % 0 in open2300-1.11 W/m2
Observations météo à CASSIS
WU-History script by Weather Underground - 1 mb